sensor_id;sensor_type;location;lat;lon;timestamp;pressure;altitude;pressure_sealevel;temperature;humidity
19845;BME280;10083;51.038;7.012;2022-09-29T00:15:57;147240.56;;;9.17;75.73
19845;BME280;10083;51.038;7.012;2022-09-29T00:18:59;147975.09;;;9.11;75.72
19845;BME280;10083;51.038;7.012;2022-09-29T00:25:50;149698.41;;;9.08;75.73
19845;BME280;10083;51.038;7.012;2022-09-29T00:32:10;150385.25;;;9.06;75.72
19845;BME280;10083;51.038;7.012;2022-09-29T00:35:56;150364.38;;;8.98;75.72
19845;BME280;10083;51.038;7.012;2022-09-29T00:39:29;150342.22;;;8.89;75.71
19845;BME280;10083;51.038;7.012;2022-09-29T00:42:51;150304.41;;;8.75;75.69
19845;BME280;10083;51.038;7.012;2022-09-29T00:53:09;149915.63;;;8.58;75.68
19845;BME280;10083;51.038;7.012;2022-09-29T00:56:32;149541.34;;;8.47;75.66
19845;BME280;10083;51.038;7.012;2022-09-29T01:00:16;149567.31;;;8.57;75.67
19845;BME280;10083;51.038;7.012;2022-09-29T01:04:02;149530.97;;;8.43;75.67
19845;BME280;10083;51.038;7.012;2022-09-29T01:06:56;149853.22;;;8.34;75.65
19845;BME280;10083;51.038;7.012;2022-09-29T01:13:49;150157.09;;;8.17;75.65
19845;BME280;10083;51.038;7.012;2022-09-29T01:20:17;150170.09;;;8.23;75.64
19845;BME280;10083;51.038;7.012;2022-09-29T01:24:17;150497.41;;;8.15;75.64
19845;BME280;10083;51.038;7.012;2022-09-29T01:31:20;150098.44;;;7.95;75.63
19845;BME280;10083;51.038;7.012;2022-09-29T01:35:08;149788.16;;;8.08;75.65
19845;BME280;10083;51.038;7.012;2022-09-29T01:41:57;149797.25;;;8.12;75.65
19845;BME280;10083;51.038;7.012;2022-09-29T01:45:11;149790.72;;;8.09;75.63
19845;BME280;10083;51.038;7.012;2022-09-29T01:56:08;127297.53;;;7.88;75.61
19845;BME280;10083;51.038;7.012;2022-09-29T02:00:07;129947.56;;;7.80;75.61
19845;BME280;10083;51.038;7.012;2022-09-29T02:03:08;129895.28;;;7.63;75.59
19845;BME280;10083;51.038;7.012;2022-09-29T02:07:32;130577.06;;;7.77;75.61
19845;BME280;10083;51.038;7.012;2022-09-29T02:09:54;131372.28;;;7.76;75.60
19845;BME280;10083;51.038;7.012;2022-09-29T02:13:27;132126.22;;;7.78;75.61
19845;BME280;10083;51.038;7.012;2022-09-29T02:17:48;116820.66;;;7.72;75.61
19845;BME280;10083;51.038;7.012;2022-09-29T02:20:00;117338.34;;;7.53;75.58
19845;BME280;10083;51.038;7.012;2022-09-29T02:26:25;116951.19;;;7.35;75.57
19845;BME280;10083;51.038;7.012;2022-09-29T02:36:14;116880.59;;;7.13;75.55
19845;BME280;10083;51.038;7.012;2022-09-29T02:39:38;126572.75;;;7.26;75.56
19845;BME280;10083;51.038;7.012;2022-09-29T02:43:17;133840.94;;;7.15;75.54
19845;BME280;10083;51.038;7.012;2022-09-29T02:54:06;142755.41;;;6.99;75.55
19845;BME280;10083;51.038;7.012;2022-09-29T02:57:37;144965.47;;;6.91;75.52
19845;BME280;10083;51.038;7.012;2022-09-29T03:04:06;144216.50;;;6.81;75.52
19845;BME280;10083;51.038;7.012;2022-09-29T03:10:37;144915.03;;;6.87;75.53
19845;BME280;10083;51.038;7.012;2022-09-29T03:13:32;144879.59;;;6.73;75.51
19845;BME280;10083;51.038;7.012;2022-09-29T03:16:48;144485.66;;;6.65;75.51
19845;BME280;10083;51.038;7.012;2022-09-29T03:21:18;144218.72;;;6.54;75.49
19845;BME280;10083;51.038;7.012;2022-09-29T03:23:42;144824.34;;;6.50;75.49
19845;BME280;10083;51.038;7.012;2022-09-29T03:27:14;144856.78;;;6.49;75.49
19845;BME280;10083;51.038;7.012;2022-09-29T03:30:10;145250.47;;;6.51;75.51
19845;BME280;10083;51.038;7.012;2022-09-29T03:33:25;145560.50;;;6.37;75.48
19845;BME280;10083;51.038;7.012;2022-09-29T03:36:24;145563.03;;;6.38;75.49
19845;BME280;10083;51.038;7.012;2022-09-29T03:39:34;144838.69;;;6.29;75.48
19845;BME280;10083;51.038;7.012;2022-09-29T03:49:25;145523.78;;;6.22;75.47
19845;BME280;10083;51.038;7.012;2022-09-29T03:55:46;146159.84;;;6.02;75.44
19845;BME280;10083;51.038;7.012;2022-09-29T03:59:03;146162.41;;;6.03;75.44
19845;BME280;10083;51.038;7.012;2022-09-29T04:02:07;145818.41;;;6.03;75.46
19845;BME280;10083;51.038;7.012;2022-09-29T04:05:32;145810.81;;;6.00;75.45
19845;BME280;10083;51.038;7.012;2022-09-29T04:08:33;145801.91;;;5.96;75.44
19845;BME280;10083;51.038;7.012;2022-09-29T04:12:44;145782.91;;;5.88;75.43
19845;BME280;10083;51.038;7.012;2022-09-29T04:21:34;145754.97;;;5.77;75.42
19845;BME280;10083;51.038;7.012;2022-09-29T04:24:42;145748.59;;;5.75;75.42
19845;BME280;10083;51.038;7.012;2022-09-29T04:27:48;146086.09;;;5.72;75.42
19845;BME280;10083;51.038;7.012;2022-09-29T04:33:07;146070.84;;;5.66;75.41
19845;BME280;10083;51.038;7.012;2022-09-29T04:34:25;146405.72;;;5.63;75.41
19845;BME280;10083;51.038;7.012;2022-09-29T04:37:59;145685.25;;;5.50;75.39
19845;BME280;10083;51.038;7.012;2022-09-29T04:44:17;146061.94;;;5.63;75.42
19845;BME280;10083;51.038;7.012;2022-09-29T04:48:51;146060.66;;;5.62;75.42
19845;BME280;10083;51.038;7.012;2022-09-29T04:50:46;146368.84;;;5.48;75.39
19845;BME280;10083;51.038;7.012;2022-09-29T04:53:42;146361.16;;;5.45;75.40
19845;BME280;10083;51.038;7.012;2022-09-29T04:56:32;146730.41;;;5.55;75.40
19845;BME280;10083;51.038;7.012;2022-09-29T04:59:29;146748.25;;;5.62;75.42
19845;BME280;10083;51.038;7.012;2022-09-29T05:02:36;146777.66;;;5.74;75.43
19845;BME280;10083;51.038;7.012;2022-09-29T05:05:27;147121.53;;;5.74;75.43
19845;BME280;10083;51.038;7.012;2022-09-29T05:11:56;147118.97;;;5.73;75.43
19845;BME280;10083;51.038;7.012;2022-09-29T05:15:06;146744.47;;;5.61;75.41
19845;BME280;10083;51.038;7.012;2022-09-29T05:18:12;146762.31;;;5.68;75.42
19845;BME280;10083;51.038;7.012;2022-09-29T05:24:45;147110.03;;;5.69;75.42
19845;BME280;10083;51.038;7.012;2022-09-29T05:29:20;146753.38;;;5.64;75.42
19845;BME280;10083;51.038;7.012;2022-09-29T05:31:04;147443.69;;;5.65;75.41
19845;BME280;10083;51.038;7.012;2022-09-29T05:34:02;147478.25;;;5.79;75.41
19845;BME280;10083;51.038;7.012;2022-09-29T05:37:04;147808.16;;;5.73;75.43
19845;BME280;10083;51.038;7.012;2022-09-29T05:40:23;148174.03;;;5.82;75.43
19845;BME280;10083;51.038;7.012;2022-09-29T05:43:28;148165.03;;;5.78;75.44
19845;BME280;10083;51.038;7.012;2022-09-29T05:46:31;148501.28;;;5.75;75.42
19845;BME280;10083;51.038;7.012;2022-09-29T05:49:13;148140.53;;;5.69;75.42
19845;BME280;10083;51.038;7.012;2022-09-29T05:52:02;148475.50;;;5.65;75.42
19845;BME280;10083;51.038;7.012;2022-09-29T05:54:54;148541.41;;;5.91;75.45
19845;BME280;10083;51.038;7.012;2022-09-29T05:57:51;148576.28;;;6.05;75.44
19845;BME280;10083;51.038;7.012;2022-09-29T06:01:10;148538.81;;;5.90;75.44
19845;BME280;10083;51.038;7.012;2022-09-29T06:04:09;148884.25;;;5.90;75.43
19845;BME280;10083;51.038;7.012;2022-09-29T06:07:01;148863.50;;;5.82;75.43
19845;BME280;10083;51.038;7.012;2022-09-29T06:09:32;148170.16;;;5.80;75.44
19845;BME280;10083;51.038;7.012;2022-09-29T06:12:02;148203.69;;;5.94;75.44
19845;BME280;10083;51.038;7.012;2022-09-29T06:14:34;147872.47;;;5.99;75.45
19845;BME280;10083;51.038;7.012;2022-09-29T06:17:04;148228.19;;;6.03;75.46
19845;BME280;10083;51.038;7.012;2022-09-29T06:22:27;148266.84;;;6.18;75.45
19845;BME280;10083;51.038;7.012;2022-09-29T06:24:54;102398.59;;;6.26;75.46
19845;BME280;10083;51.038;7.012;2022-09-29T06:27:26;150386.59;;;6.38;75.49
19845;BME280;10083;51.038;7.012;2022-09-29T06:30:07;150415.25;;;6.50;75.50
19845;BME280;10083;51.038;7.012;2022-09-29T06:32:38;150423.09;;;6.53;75.50
19845;BME280;10083;51.038;7.012;2022-09-29T06:35:06;150445.31;;;6.62;75.50
19845;BME280;10083;51.038;7.012;2022-09-29T06:37:52;150449.25;;;6.63;75.51
19845;BME280;10083;51.038;7.012;2022-09-29T06:40:22;150463.63;;;6.69;75.51
19845;BME280;10083;51.038;7.012;2022-09-29T06:42:54;150471.47;;;6.72;75.51
19845;BME280;10083;51.038;7.012;2022-09-29T06:45:24;150458.38;;;6.67;75.51
19845;BME280;10083;51.038;7.012;2022-09-29T06:48:00;150491.19;;;6.78;75.52
19845;BME280;10083;51.038;7.012;2022-09-29T06:50:52;150465.03;;;6.68;75.50
19845;BME280;10083;51.038;7.012;2022-09-29T06:53:28;150474.09;;;6.73;75.51
19845;BME280;10083;51.038;7.012;2022-09-29T06:56:00;150526.44;;;6.92;75.54
19845;BME280;10083;51.038;7.012;2022-09-29T06:58:36;150534.22;;;6.96;75.54
19845;BME280;10083;51.038;7.012;2022-09-29T07:01:12;150555.16;;;7.04;75.55
19845;BME280;10083;51.038;7.012;2022-09-29T07:03:49;150560.38;;;7.06;75.55
19845;BME280;10083;51.038;7.012;2022-09-29T07:06:31;150574.78;;;7.12;75.55
19845;BME280;10083;51.038;7.012;2022-09-29T07:09:09;150572.22;;;7.10;75.54
19845;BME280;10083;51.038;7.012;2022-09-29T07:11:51;150599.63;;;7.21;75.55
19845;BME280;10083;51.038;7.012;2022-09-29T07:14:22;150612.72;;;7.26;75.55
19845;BME280;10083;51.038;7.012;2022-09-29T07:16:56;150302.88;;;7.40;75.58
19845;BME280;10083;51.038;7.012;2022-09-29T07:19:29;150672.84;;;7.50;75.59
19845;BME280;10083;51.038;7.012;2022-09-29T07:22:00;150697.72;;;7.59;75.58
19845;BME280;10083;51.038;7.012;2022-09-29T07:24:32;150684.63;;;7.54;75.60
19845;BME280;10083;51.038;7.012;2022-09-29T07:27:07;150733.06;;;7.73;75.61
19845;BME280;10083;51.038;7.012;2022-09-29T07:29:39;150756.63;;;7.82;75.62
19845;BME280;10083;51.038;7.012;2022-09-29T07:32:11;150784.06;;;7.93;75.62
19845;BME280;10083;51.038;7.012;2022-09-29T07:34:47;150430.81;;;7.90;75.62
19845;BME280;10083;51.038;7.012;2022-09-29T07:37:17;150458.25;;;8.00;75.63
19845;BME280;10083;51.038;7.012;2022-09-29T07:39:51;150786.69;;;7.94;75.64
19845;BME280;10083;51.038;7.012;2022-09-29T07:42:26;150829.88;;;8.10;75.63
19845;BME280;10083;51.038;7.012;2022-09-29T07:45:03;150860.03;;;8.22;75.65
19845;BME280;10083;51.038;7.012;2022-09-29T07:47:34;150878.38;;;8.29;75.65
19845;BME280;10083;51.038;7.012;2022-09-29T07:50:09;150895.38;;;8.36;75.66
19845;BME280;10083;51.038;7.012;2022-09-29T07:52:44;150908.47;;;8.41;75.67
19845;BME280;10083;51.038;7.012;2022-09-29T07:55:29;150937.31;;;8.52;75.67
19845;BME280;10083;51.038;7.012;2022-09-29T07:58:16;150972.69;;;8.66;75.70
19845;BME280;10083;51.038;7.012;2022-09-29T08:01:12;150988.38;;;8.72;75.70
19845;BME280;10083;51.038;7.012;2022-09-29T08:04:01;151023.72;;;8.85;75.72
19845;BME280;10083;51.038;7.012;2022-09-29T08:09:35;151078.75;;;9.06;75.72
19845;BME280;10083;51.038;7.012;2022-09-29T08:12:09;151061.81;;;8.99;75.72
19845;BME280;10083;51.038;7.012;2022-09-29T08:15:13;151080.13;;;9.06;75.72
19845;BME280;10083;51.038;7.012;2022-09-29T08:17:54;151094.56;;;9.12;75.73
19845;BME280;10083;51.038;7.012;2022-09-29T08:20:48;151129.94;;;9.25;75.74
19845;BME280;10083;51.038;7.012;2022-09-29T08:23:45;151148.28;;;9.32;75.75
19845;BME280;10083;51.038;7.012;2022-09-29T08:26:36;151162.69;;;9.38;75.75
19845;BME280;10083;51.038;7.012;2022-09-29T08:29:06;151156.16;;;9.35;75.75
19845;BME280;10083;51.038;7.012;2022-09-29T08:31:37;151237.38;;;9.67;75.78
19845;BME280;10083;51.038;7.012;2022-09-29T08:34:34;151233.47;;;9.65;75.77
19845;BME280;10083;51.038;7.012;2022-09-29T08:37:31;151205.94;;;9.54;75.77
19845;BME280;10083;51.038;7.012;2022-09-29T08:40:38;151259.66;;;9.75;75.79
19845;BME280;10083;51.038;7.012;2022-09-29T08:43:24;151254.44;;;9.73;75.78
19845;BME280;10083;51.038;7.012;2022-09-29T08:46:04;151287.22;;;9.86;75.80
19845;BME280;10083;51.038;7.012;2022-09-29T08:48:40;151373.78;;;10.19;75.83
19845;BME280;10083;51.038;7.012;2022-09-29T08:51:32;151424.97;;;10.39;75.86
19845;BME280;10083;51.038;7.012;2022-09-29T08:54:33;151491.88;;;10.65;75.87
19845;BME280;10083;51.038;7.012;2022-09-29T08:57:27;151506.28;;;10.70;75.88
19845;BME280;10083;51.038;7.012;2022-09-29T09:00:09;151515.50;;;10.74;75.88
19845;BME280;10083;51.038;7.012;2022-09-29T09:03:04;151549.59;;;10.87;75.88
19845;BME280;10083;51.038;7.012;2022-09-29T09:06:08;151602.09;;;11.07;75.91
19845;BME280;10083;51.038;7.012;2022-09-29T09:08:58;151586.31;;;11.01;75.90
19845;BME280;10083;51.038;7.012;2022-09-29T09:14:49;151651.97;;;11.26;75.93
19845;BME280;10083;51.038;7.012;2022-09-29T09:17:47;151709.69;;;11.49;75.94
19845;BME280;10083;51.038;7.012;2022-09-29T09:21:15;151768.81;;;11.71;75.97
19845;BME280;10083;51.038;7.012;2022-09-29T09:24:16;151782.00;;;11.76;75.97
19845;BME280;10083;51.038;7.012;2022-09-29T09:27:38;151843.75;;;12.00;75.99
19845;BME280;10083;51.038;7.012;2022-09-29T09:30:43;151860.78;;;12.07;75.99
19845;BME280;10083;51.038;7.012;2022-09-29T09:34:00;151830.59;;;11.95;75.98
19845;BME280;10083;51.038;7.012;2022-09-29T09:37:14;151904.13;;;12.23;76.02
19845;BME280;10083;51.038;7.012;2022-09-29T09:43:53;152019.78;;;12.68;76.05
19845;BME280;10083;51.038;7.012;2022-09-29T09:53:18;152182.88;;;13.31;76.11
19845;BME280;10083;51.038;7.012;2022-09-29T09:56:13;152281.50;;;13.69;76.14
19845;BME280;10083;51.038;7.012;2022-09-29T09:59:12;152270.97;;;13.65;76.13
19845;BME280;10083;51.038;7.012;2022-09-29T10:06:03;152415.69;;;14.20;76.19
19845;BME280;10083;51.038;7.012;2022-09-29T10:09:14;152535.50;;;14.66;76.22
19845;BME280;10083;51.038;7.012;2022-09-29T10:12:42;152509.22;;;14.56;76.22
19845;BME280;10083;51.038;7.012;2022-09-29T10:15:35;152719.88;;;15.37;76.30
19845;BME280;10083;51.038;7.012;2022-09-29T10:19:53;152721.22;;;15.37;76.29
19845;BME280;10083;51.038;7.012;2022-09-29T10:27:10;153087.75;;;16.78;76.42
19845;BME280;10083;51.038;7.012;2022-09-29T10:29:51;153234.19;;;17.34;76.46
19845;BME280;10083;51.038;7.012;2022-09-29T10:32:28;153104.88;;;16.85;76.41
19845;BME280;10083;51.038;7.012;2022-09-29T10:35:41;153378.06;;;17.89;76.50
19845;BME280;10083;51.038;7.012;2022-09-29T10:53:56;145168.59;;;21.62;76.84
19845;BME280;10083;51.038;7.012;2022-09-29T10:56:45;136139.25;;;20.67;76.75
19845;BME280;10083;51.038;7.012;2022-09-29T11:31:10;16334.19;;;22.74;81.21
19845;BME280;10083;51.038;7.012;2022-09-29T11:39:11;13411.47;;;21.35;95.20
19845;BME280;10083;51.038;7.012;2022-09-29T11:47:03;13505.53;;;23.95;100.00
19845;BME280;10083;51.038;7.012;2022-09-29T12:12:29;24773.47;;;26.87;100.00
19845;BME280;10083;51.038;7.012;2022-09-29T12:22:22;35590.97;;;21.19;100.00
19845;BME280;10083;51.038;7.012;2022-09-29T12:24:57;38192.22;;;19.26;100.00
19845;BME280;10083;51.038;7.012;2022-09-29T12:27:31;39127.72;;;19.14;100.00
19845;BME280;10083;51.038;7.012;2022-09-29T12:30:03;40163.47;;;18.17;100.00
19845;BME280;10083;51.038;7.012;2022-09-29T12:32:38;40364.03;;;18.21;100.00
19845;BME280;10083;51.038;7.012;2022-09-29T12:35:13;40215.09;;;18.47;100.00
19845;BME280;10083;51.038;7.012;2022-09-29T12:37:46;40124.44;;;18.22;100.00
19845;BME280;10083;51.038;7.012;2022-09-29T12:40:18;39974.31;;;18.47;100.00
19845;BME280;10083;51.038;7.012;2022-09-29T12:43:03;37500.47;;;21.01;100.00
19845;BME280;10083;51.038;7.012;2022-09-29T12:45:45;36268.47;;;21.79;100.00
19845;BME280;10083;51.038;7.012;2022-09-29T12:48:53;36656.13;;;20.26;100.00
19845;BME280;10083;51.038;7.012;2022-09-29T12:51:27;35048.63;;;21.72;100.00
19845;BME280;10083;51.038;7.012;2022-09-29T12:54:11;32148.66;;;24.05;100.00
19845;BME280;10083;51.038;7.012;2022-09-29T12:56:56;31290.47;;;23.54;100.00
19845;BME280;10083;51.038;7.012;2022-09-29T12:59:35;29787.38;;;24.33;100.00
19845;BME280;10083;51.038;7.012;2022-09-29T13:02:24;28628.25;;;24.67;100.00
19845;BME280;10083;51.038;7.012;2022-09-29T13:05:14;28718.59;;;23.57;100.00
19845;BME280;10083;51.038;7.012;2022-09-29T13:08:03;29762.97;;;22.14;100.00
19845;BME280;10083;51.038;7.012;2022-09-29T13:10:54;29035.69;;;22.89;100.00
19845;BME280;10083;51.038;7.012;2022-09-29T13:13:43;31089.38;;;20.75;100.00
19845;BME280;10083;51.038;7.012;2022-09-29T13:16:24;32868.56;;;19.06;100.00
19845;BME280;10083;51.038;7.012;2022-09-29T13:19:27;34045.34;;;18.04;100.00
19845;BME280;10083;51.038;7.012;2022-09-29T13:22:20;34448.78;;;17.89;100.00
19845;BME280;10083;51.038;7.012;2022-09-29T13:24:59;35099.47;;;17.36;100.00
19845;BME280;10083;51.038;7.012;2022-09-29T13:27:35;35759.50;;;16.95;100.00
19845;BME280;10083;51.038;7.012;2022-09-29T13:30:11;36138.56;;;16.69;100.00
19845;BME280;10083;51.038;7.012;2022-09-29T13:32:41;36420.88;;;16.61;100.00
19845;BME280;10083;51.038;7.012;2022-09-29T13:35:40;36550.13;;;16.56;100.00
19845;BME280;10083;51.038;7.012;2022-09-29T13:38:37;36655.03;;;16.61;100.00
19845;BME280;10083;51.038;7.012;2022-09-29T13:41:44;36930.22;;;16.24;100.00
19845;BME280;10083;51.038;7.012;2022-09-29T13:44:35;37104.91;;;16.42;100.00
19845;BME280;10083;51.038;7.012;2022-09-29T13:47:32;37531.91;;;16.02;100.00
19845;BME280;10083;51.038;7.012;2022-09-29T13:50:42;37660.53;;;16.11;100.00
19845;BME280;10083;51.038;7.012;2022-09-29T13:53:45;37648.03;;;16.43;100.00
19845;BME280;10083;51.038;7.012;2022-09-29T13:56:31;37507.53;;;16.78;100.00
19845;BME280;10083;51.038;7.012;2022-09-29T13:59:01;37938.38;;;16.58;100.00
19845;BME280;10083;51.038;7.012;2022-09-29T14:01:33;37974.34;;;16.76;100.00
19845;BME280;10083;51.038;7.012;2022-09-29T14:04:37;37549.34;;;17.46;100.00
19845;BME280;10083;51.038;7.012;2022-09-29T14:07:10;36117.81;;;19.21;100.00
19845;BME280;10083;51.038;7.012;2022-09-29T14:09:41;35325.75;;;20.17;100.00
19845;BME280;10083;51.038;7.012;2022-09-29T14:12:17;34356.56;;;21.38;100.00
19845;BME280;10083;51.038;7.012;2022-09-29T14:14:53;34857.31;;;20.79;100.00
19845;BME280;10083;51.038;7.012;2022-09-29T14:17:30;34358.69;;;21.75;100.00
19845;BME280;10083;51.038;7.012;2022-09-29T14:20:12;35838.09;;;20.03;100.00
19845;BME280;10083;51.038;7.012;2022-09-29T14:22:57;36761.84;;;19.45;100.00
19845;BME280;10083;51.038;7.012;2022-09-29T14:28:36;37621.47;;;19.05;100.00
19845;BME280;10083;51.038;7.012;2022-09-29T14:31:20;37741.97;;;19.32;100.00
19845;BME280;10083;51.038;7.012;2022-09-29T14:33:55;36590.78;;;20.96;100.00
19845;BME280;10083;51.038;7.012;2022-09-29T14:36:28;36222.69;;;21.54;100.00
19845;BME280;10083;51.038;7.012;2022-09-29T14:39:15;36951.53;;;20.94;100.00
19845;BME280;10083;51.038;7.012;2022-09-29T14:41:51;36623.50;;;21.68;100.00
19845;BME280;10083;51.038;7.012;2022-09-29T14:44:23;37998.31;;;20.23;100.00
19845;BME280;10083;51.038;7.012;2022-09-29T14:47:29;38828.19;;;19.78;100.00
19845;BME280;10083;51.038;7.012;2022-09-29T14:50:37;39760.19;;;18.90;100.00
19845;BME280;10083;51.038;7.012;2022-09-29T14:53:38;40494.19;;;18.42;100.00
19845;BME280;10083;51.038;7.012;2022-09-29T14:56:20;40754.97;;;18.66;100.00
19845;BME280;10083;51.038;7.012;2022-09-29T14:59:01;40561.09;;;19.11;100.00
19845;BME280;10083;51.038;7.012;2022-09-29T15:01:33;41096.72;;;18.62;100.00
19845;BME280;10083;51.038;7.012;2022-09-29T15:04:05;41505.22;;;18.36;100.00
19845;BME280;10083;51.038;7.012;2022-09-29T15:06:44;41606.78;;;18.40;100.00
19845;BME280;10083;51.038;7.012;2022-09-29T15:09:16;42146.47;;;17.98;100.00
19845;BME280;10083;51.038;7.012;2022-09-29T15:11:48;42637.13;;;17.59;100.00
19845;BME280;10083;51.038;7.012;2022-09-29T15:14:25;42893.13;;;17.48;100.00
19845;BME280;10083;51.038;7.012;2022-09-29T15:17:06;43198.53;;;17.23;100.00
19845;BME280;10083;51.038;7.012;2022-09-29T15:19:44;43522.63;;;17.04;100.00
19845;BME280;10083;51.038;7.012;2022-09-29T15:25:20;44347.50;;;16.38;100.00
19845;BME280;10083;51.038;7.012;2022-09-29T15:27:55;44706.53;;;16.24;100.00
19845;BME280;10083;51.038;7.012;2022-09-29T15:30:25;44934.09;;;16.22;100.00
19845;BME280;10083;51.038;7.012;2022-09-29T15:33:06;45197.88;;;16.15;100.00
19845;BME280;10083;51.038;7.012;2022-09-29T15:35:40;45420.66;;;16.11;100.00
19845;BME280;10083;51.038;7.012;2022-09-29T15:38:28;45614.69;;;16.04;100.00
19845;BME280;10083;51.038;7.012;2022-09-29T15:41:00;46032.09;;;15.87;100.00
19845;BME280;10083;51.038;7.012;2022-09-29T15:43:31;46247.63;;;15.83;100.00
19845;BME280;10083;51.038;7.012;2022-09-29T15:46:14;46427.22;;;15.78;100.00
19845;BME280;10083;51.038;7.012;2022-09-29T15:49:13;46824.75;;;15.47;100.00
19845;BME280;10083;51.038;7.012;2022-09-29T15:51:44;47215.56;;;15.40;100.00
19845;BME280;10083;51.038;7.012;2022-09-29T15:54:23;47588.56;;;15.31;100.00
19845;BME280;10083;51.038;7.012;2022-09-29T15:56:52;47898.31;;;15.32;100.00
19845;BME280;10083;51.038;7.012;2022-09-29T15:59:43;48329.16;;;15.01;100.00
19845;BME280;10083;51.038;7.012;2022-09-29T16:02:27;48621.97;;;15.04;100.00
19845;BME280;10083;51.038;7.012;2022-09-29T16:04:57;49053.25;;;14.98;100.00
19845;BME280;10083;51.038;7.012;2022-09-29T16:07:27;49509.31;;;14.83;100.00
19845;BME280;10083;51.038;7.012;2022-09-29T16:10:16;49863.66;;;14.75;100.00
19845;BME280;10083;51.038;7.012;2022-09-29T16:12:47;50161.22;;;14.68;100.00
19845;BME280;10083;51.038;7.012;2022-09-29T16:15:19;50571.72;;;14.57;100.00
19845;BME280;10083;51.038;7.012;2022-09-29T16:17:49;51206.47;;;14.32;100.00
19845;BME280;10083;51.038;7.012;2022-09-29T16:20:22;51636.00;;;14.36;100.00
19845;BME280;10083;51.038;7.012;2022-09-29T16:22:52;51958.84;;;14.43;100.00
19845;BME280;10083;51.038;7.012;2022-09-29T16:25:24;52485.47;;;14.28;100.00
19845;BME280;10083;51.038;7.012;2022-09-29T16:27:54;53107.31;;;14.08;100.00
19845;BME280;10083;51.038;7.012;2022-09-29T16:30:26;53586.84;;;14.08;100.00
19845;BME280;10083;51.038;7.012;2022-09-29T16:33:01;54118.16;;;14.01;100.00
19845;BME280;10083;51.038;7.012;2022-09-29T16:35:42;54370.41;;;14.09;100.00
19845;BME280;10083;51.038;7.012;2022-09-29T16:38:46;54883.06;;;13.89;100.00
19845;BME280;10083;51.038;7.012;2022-09-29T16:41:24;55393.13;;;13.88;100.00
19845;BME280;10083;51.038;7.012;2022-09-29T16:44:11;55930.88;;;13.69;100.00
19845;BME280;10083;51.038;7.012;2022-09-29T16:46:46;56500.44;;;13.48;100.00
19845;BME280;10083;51.038;7.012;2022-09-29T16:49:20;57020.13;;;13.14;100.00
19845;BME280;10083;51.038;7.012;2022-09-29T16:51:51;57485.06;;;12.98;100.00
19845;BME280;10083;51.038;7.012;2022-09-29T16:54:24;58038.84;;;12.70;100.00
19845;BME280;10083;51.038;7.012;2022-09-29T16:57:25;58382.69;;;12.51;100.00
19845;BME280;10083;51.038;7.012;2022-09-29T16:59:55;58882.00;;;12.33;100.00
19845;BME280;10083;51.038;7.012;2022-09-29T17:02:24;59302.97;;;12.21;100.00
19845;BME280;10083;51.038;7.012;2022-09-29T17:05:03;59517.09;;;12.02;100.00
19845;BME280;10083;51.038;7.012;2022-09-29T17:07:48;59555.28;;;11.93;100.00
19845;BME280;10083;51.038;7.012;2022-09-29T17:10:27;59582.94;;;11.94;100.00
19845;BME280;10083;51.038;7.012;2022-09-29T17:13:16;59599.88;;;11.83;100.00
19845;BME280;10083;51.038;7.012;2022-09-29T17:16:06;59895.50;;;11.61;100.00
19845;BME280;10083;51.038;7.012;2022-09-29T17:18:40;60134.94;;;11.59;100.00
19845;BME280;10083;51.038;7.012;2022-09-29T17:21:16;60285.63;;;11.51;100.00
19845;BME280;10083;51.038;7.012;2022-09-29T17:23:51;60340.50;;;11.32;100.00
19845;BME280;10083;51.038;7.012;2022-09-29T17:32:28;58134.97;;;11.04;100.00
19845;BME280;10083;51.038;7.012;2022-09-29T17:35:09;57982.94;;;10.95;100.00
19845;BME280;10083;51.038;7.012;2022-09-29T17:37:45;57784.41;;;10.82;100.00
19845;BME280;10083;51.038;7.012;2022-09-29T17:40:23;57454.22;;;10.81;100.00
19845;BME280;10083;51.038;7.012;2022-09-29T17:45:35;57099.31;;;10.60;100.00
19845;BME280;10083;51.038;7.012;2022-09-29T17:48:30;56651.97;;;10.53;100.00
19845;BME280;10083;51.038;7.012;2022-09-29T17:51:14;56510.63;;;10.52;100.00
19845;BME280;10083;51.038;7.012;2022-09-29T17:53:58;56346.66;;;10.47;100.00
19845;BME280;10083;51.038;7.012;2022-09-29T17:56:36;56131.97;;;10.52;100.00
19845;BME280;10083;51.038;7.012;2022-09-29T17:59:19;55977.75;;;10.43;100.00
19845;BME280;10083;51.038;7.012;2022-09-29T18:02:00;55858.38;;;10.37;100.00
19845;BME280;10083;51.038;7.012;2022-09-29T18:04:41;55712.16;;;10.39;100.00
19845;BME280;10083;51.038;7.012;2022-09-29T18:07:20;55520.16;;;10.27;100.00
19845;BME280;10083;51.038;7.012;2022-09-29T18:10:12;55279.69;;;10.30;100.00
19845;BME280;10083;51.038;7.012;2022-09-29T18:12:56;55080.72;;;10.38;100.00
19845;BME280;10083;51.038;7.012;2022-09-29T18:15:36;54846.00;;;10.41;100.00
19845;BME280;10083;51.038;7.012;2022-09-29T18:18:24;54781.03;;;10.32;100.00
19845;BME280;10083;51.038;7.012;2022-09-29T18:20:55;54792.69;;;10.09;100.00
19845;BME280;10083;51.038;7.012;2022-09-29T18:23:27;54773.50;;;10.11;100.00
19845;BME280;10083;51.038;7.012;2022-09-29T18:26:05;54697.47;;;10.09;100.00
19845;BME280;10083;51.038;7.012;2022-09-29T18:28:43;54647.09;;;10.03;100.00
19845;BME280;10083;51.038;7.012;2022-09-29T18:31:27;54614.31;;;10.10;100.00
19845;BME280;10083;51.038;7.012;2022-09-29T18:34:29;54641.09;;;10.13;100.00
19845;BME280;10083;51.038;7.012;2022-09-29T18:37:01;54993.22;;;10.08;100.00
19845;BME280;10083;51.038;7.012;2022-09-29T18:39:43;55085.50;;;10.13;100.00
19845;BME280;10083;51.038;7.012;2022-09-29T18:42:16;54948.44;;;10.06;100.00
19845;BME280;10083;51.038;7.012;2022-09-29T18:44:54;54634.97;;;10.10;100.00
19845;BME280;10083;51.038;7.012;2022-09-29T18:47:27;54458.06;;;10.13;100.00
19845;BME280;10083;51.038;7.012;2022-09-29T18:50:15;54464.34;;;10.14;100.00